sensor_id;sensor_type;location;lat;lon;timestamp;P1;durP1;ratioP1;P2;durP2;ratioP2
14736;SDS011;7459;53.590;10.062;2022-08-25T00:01:48;6.45;;;2.25;;
14736;SDS011;7459;53.590;10.062;2022-08-25T00:04:20;5.50;;;2.53;;
14736;SDS011;7459;53.590;10.062;2022-08-25T00:06:47;7.45;;;2.58;;
14736;SDS011;7459;53.590;10.062;2022-08-25T00:09:16;6.03;;;2.40;;
14736;SDS011;7459;53.590;10.062;2022-08-25T00:11:46;5.82;;;2.70;;
14736;SDS011;7459;53.590;10.062;2022-08-25T00:14:18;6.18;;;2.80;;
14736;SDS011;7459;53.590;10.062;2022-08-25T00:16:48;6.47;;;2.67;;
14736;SDS011;7459;53.590;10.062;2022-08-25T00:19:16;8.90;;;2.38;;
14736;SDS011;7459;53.590;10.062;2022-08-25T00:21:46;8.17;;;2.40;;
14736;SDS011;7459;53.590;10.062;2022-08-25T00:24:13;5.43;;;2.35;;
14736;SDS011;7459;53.590;10.062;2022-08-25T00:26:42;5.30;;;2.58;;
14736;SDS011;7459;53.590;10.062;2022-08-25T00:29:11;5.80;;;2.50;;
14736;SDS011;7459;53.590;10.062;2022-08-25T00:31:37;8.52;;;3.05;;
14736;SDS011;7459;53.590;10.062;2022-08-25T00:34:05;5.73;;;2.60;;
14736;SDS011;7459;53.590;10.062;2022-08-25T00:36:34;5.13;;;2.47;;
14736;SDS011;7459;53.590;10.062;2022-08-25T00:39:01;6.43;;;2.63;;
14736;SDS011;7459;53.590;10.062;2022-08-25T00:41:28;7.88;;;2.78;;
14736;SDS011;7459;53.590;10.062;2022-08-25T00:43:58;6.27;;;2.97;;
14736;SDS011;7459;53.590;10.062;2022-08-25T00:46:30;6.00;;;2.50;;
14736;SDS011;7459;53.590;10.062;2022-08-25T00:49:02;7.18;;;2.70;;
14736;SDS011;7459;53.590;10.062;2022-08-25T00:51:48;8.00;;;2.70;;
14736;SDS011;7459;53.590;10.062;2022-08-25T00:54:29;8.73;;;3.13;;
14736;SDS011;7459;53.590;10.062;2022-08-25T00:57:00;7.28;;;2.80;;
14736;SDS011;7459;53.590;10.062;2022-08-25T00:59:29;8.23;;;3.00;;
14736;SDS011;7459;53.590;10.062;2022-08-25T01:01:55;7.20;;;2.95;;
14736;SDS011;7459;53.590;10.062;2022-08-25T01:04:23;7.00;;;2.60;;
14736;SDS011;7459;53.590;10.062;2022-08-25T01:06:49;7.37;;;2.87;;
14736;SDS011;7459;53.590;10.062;2022-08-25T01:09:15;6.95;;;3.05;;
14736;SDS011;7459;53.590;10.062;2022-08-25T01:11:43;6.38;;;3.20;;
14736;SDS011;7459;53.590;10.062;2022-08-25T01:14:10;7.85;;;3.08;;
14736;SDS011;7459;53.590;10.062;2022-08-25T01:16:39;4.97;;;2.55;;
14736;SDS011;7459;53.590;10.062;2022-08-25T01:19:07;12.40;;;3.03;;
14736;SDS011;7459;53.590;10.062;2022-08-25T01:21:39;7.72;;;2.58;;
14736;SDS011;7459;53.590;10.062;2022-08-25T01:24:09;8.05;;;2.92;;
14736;SDS011;7459;53.590;10.062;2022-08-25T01:26:42;5.82;;;2.67;;
14736;SDS011;7459;53.590;10.062;2022-08-25T01:29:08;5.40;;;2.53;;
14736;SDS011;7459;53.590;10.062;2022-08-25T01:31:47;6.50;;;2.50;;
14736;SDS011;7459;53.590;10.062;2022-08-25T01:34:15;7.63;;;2.90;;
14736;SDS011;7459;53.590;10.062;2022-08-25T01:36:45;7.07;;;3.08;;
14736;SDS011;7459;53.590;10.062;2022-08-25T01:39:11;6.77;;;2.47;;
14736;SDS011;7459;53.590;10.062;2022-08-25T01:44:14;6.13;;;2.42;;
14736;SDS011;7459;53.590;10.062;2022-08-25T01:46:40;5.88;;;2.53;;
14736;SDS011;7459;53.590;10.062;2022-08-25T01:49:06;5.32;;;2.88;;
14736;SDS011;7459;53.590;10.062;2022-08-25T01:51:34;4.63;;;2.43;;
14736;SDS011;7459;53.590;10.062;2022-08-25T01:54:11;7.72;;;2.58;;
14736;SDS011;7459;53.590;10.062;2022-08-25T01:56:37;9.38;;;2.85;;
14736;SDS011;7459;53.590;10.062;2022-08-25T01:59:03;6.97;;;2.87;;
14736;SDS011;7459;53.590;10.062;2022-08-25T02:01:29;5.45;;;2.58;;
14736;SDS011;7459;53.590;10.062;2022-08-25T02:03:55;5.78;;;2.75;;
14736;SDS011;7459;53.590;10.062;2022-08-25T02:06:22;8.30;;;3.00;;
14736;SDS011;7459;53.590;10.062;2022-08-25T02:08:54;5.82;;;3.13;;
14736;SDS011;7459;53.590;10.062;2022-08-25T02:11:23;7.78;;;2.92;;
14736;SDS011;7459;53.590;10.062;2022-08-25T02:13:49;7.15;;;2.88;;
14736;SDS011;7459;53.590;10.062;2022-08-25T02:16:26;7.97;;;2.67;;
14736;SDS011;7459;53.590;10.062;2022-08-25T02:18:56;8.00;;;2.47;;
14736;SDS011;7459;53.590;10.062;2022-08-25T02:21:23;6.80;;;2.80;;
14736;SDS011;7459;53.590;10.062;2022-08-25T02:23:50;8.00;;;3.38;;
14736;SDS011;7459;53.590;10.062;2022-08-25T02:26:16;7.95;;;2.95;;
14736;SDS011;7459;53.590;10.062;2022-08-25T02:28:44;6.17;;;3.00;;
14736;SDS011;7459;53.590;10.062;2022-08-25T02:31:12;5.53;;;2.80;;
14736;SDS011;7459;53.590;10.062;2022-08-25T02:33:38;7.03;;;2.72;;
14736;SDS011;7459;53.590;10.062;2022-08-25T02:36:04;6.50;;;2.67;;
14736;SDS011;7459;53.590;10.062;2022-08-25T02:38:31;5.60;;;2.30;;
14736;SDS011;7459;53.590;10.062;2022-08-25T02:40:58;5.70;;;2.70;;
14736;SDS011;7459;53.590;10.062;2022-08-25T02:43:26;5.72;;;2.75;;
14736;SDS011;7459;53.590;10.062;2022-08-25T02:45:52;5.88;;;2.60;;
14736;SDS011;7459;53.590;10.062;2022-08-25T02:48:20;7.30;;;2.47;;
14736;SDS011;7459;53.590;10.062;2022-08-25T02:50:47;6.80;;;2.70;;
14736;SDS011;7459;53.590;10.062;2022-08-25T02:53:18;6.93;;;3.20;;
14736;SDS011;7459;53.590;10.062;2022-08-25T02:55:45;6.85;;;2.70;;
14736;SDS011;7459;53.590;10.062;2022-08-25T02:58:11;6.03;;;2.65;;
14736;SDS011;7459;53.590;10.062;2022-08-25T03:00:38;7.43;;;2.80;;
14736;SDS011;7459;53.590;10.062;2022-08-25T03:03:04;6.18;;;2.17;;
14736;SDS011;7459;53.590;10.062;2022-08-25T03:05:31;6.18;;;2.58;;
14736;SDS011;7459;53.590;10.062;2022-08-25T03:07:57;6.25;;;2.58;;
14736;SDS011;7459;53.590;10.062;2022-08-25T03:10:22;9.57;;;2.60;;
14736;SDS011;7459;53.590;10.062;2022-08-25T03:12:48;6.10;;;2.58;;
14736;SDS011;7459;53.590;10.062;2022-08-25T03:15:14;7.10;;;3.13;;
14736;SDS011;7459;53.590;10.062;2022-08-25T03:17:42;8.55;;;2.72;;
14736;SDS011;7459;53.590;10.062;2022-08-25T03:20:09;6.35;;;2.90;;
14736;SDS011;7459;53.590;10.062;2022-08-25T03:22:35;5.78;;;3.00;;
14736;SDS011;7459;53.590;10.062;2022-08-25T03:25:01;8.60;;;3.07;;
14736;SDS011;7459;53.590;10.062;2022-08-25T03:27:47;6.32;;;3.10;;
14736;SDS011;7459;53.590;10.062;2022-08-25T03:30:13;7.45;;;2.70;;
14736;SDS011;7459;53.590;10.062;2022-08-25T03:32:40;6.32;;;2.70;;
14736;SDS011;7459;53.590;10.062;2022-08-25T03:35:07;5.97;;;2.93;;
14736;SDS011;7459;53.590;10.062;2022-08-25T03:37:33;7.60;;;3.10;;
14736;SDS011;7459;53.590;10.062;2022-08-25T03:40:00;4.30;;;2.30;;
14736;SDS011;7459;53.590;10.062;2022-08-25T03:42:33;6.10;;;2.80;;
14736;SDS011;7459;53.590;10.062;2022-08-25T03:45:01;6.85;;;3.05;;
14736;SDS011;7459;53.590;10.062;2022-08-25T03:47:28;6.80;;;2.70;;
14736;SDS011;7459;53.590;10.062;2022-08-25T03:49:55;5.93;;;2.97;;
14736;SDS011;7459;53.590;10.062;2022-08-25T03:52:20;6.43;;;2.85;;
14736;SDS011;7459;53.590;10.062;2022-08-25T03:54:46;7.67;;;3.00;;
14736;SDS011;7459;53.590;10.062;2022-08-25T03:57:12;6.30;;;3.00;;
14736;SDS011;7459;53.590;10.062;2022-08-25T03:59:38;6.93;;;3.08;;
14736;SDS011;7459;53.590;10.062;2022-08-25T04:02:04;6.30;;;3.03;;
14736;SDS011;7459;53.590;10.062;2022-08-25T04:04:30;6.68;;;2.72;;
14736;SDS011;7459;53.590;10.062;2022-08-25T04:06:56;6.47;;;2.78;;
14736;SDS011;7459;53.590;10.062;2022-08-25T04:09:23;7.60;;;3.30;;
14736;SDS011;7459;53.590;10.062;2022-08-25T04:11:49;7.05;;;2.83;;
14736;SDS011;7459;53.590;10.062;2022-08-25T04:14:16;11.15;;;3.40;;
14736;SDS011;7459;53.590;10.062;2022-08-25T04:16:42;9.88;;;3.17;;
14736;SDS011;7459;53.590;10.062;2022-08-25T04:19:08;8.05;;;3.33;;
14736;SDS011;7459;53.590;10.062;2022-08-25T04:21:35;8.73;;;2.83;;
14736;SDS011;7459;53.590;10.062;2022-08-25T04:24:03;8.23;;;3.22;;
14736;SDS011;7459;53.590;10.062;2022-08-25T04:26:31;9.15;;;3.38;;
14736;SDS011;7459;53.590;10.062;2022-08-25T04:29:02;7.57;;;3.30;;
14736;SDS011;7459;53.590;10.062;2022-08-25T04:31:30;8.07;;;2.80;;
14736;SDS011;7459;53.590;10.062;2022-08-25T04:33:57;8.57;;;3.07;;
14736;SDS011;7459;53.590;10.062;2022-08-25T04:36:26;10.85;;;3.70;;
14736;SDS011;7459;53.590;10.062;2022-08-25T04:38:52;8.30;;;3.10;;
14736;SDS011;7459;53.590;10.062;2022-08-25T04:41:18;7.17;;;3.40;;
14736;SDS011;7459;53.590;10.062;2022-08-25T04:43:46;8.52;;;3.22;;
14736;SDS011;7459;53.590;10.062;2022-08-25T04:46:16;8.40;;;3.70;;
14736;SDS011;7459;53.590;10.062;2022-08-25T04:48:48;9.13;;;3.42;;
14736;SDS011;7459;53.590;10.062;2022-08-25T04:51:19;7.57;;;3.27;;
14736;SDS011;7459;53.590;10.062;2022-08-25T04:53:49;7.93;;;2.75;;
14736;SDS011;7459;53.590;10.062;2022-08-25T04:56:17;10.57;;;3.35;;
14736;SDS011;7459;53.590;10.062;2022-08-25T04:58:48;10.43;;;3.88;;
14736;SDS011;7459;53.590;10.062;2022-08-25T05:01:16;6.43;;;2.90;;
14736;SDS011;7459;53.590;10.062;2022-08-25T05:03:44;6.43;;;2.80;;
14736;SDS011;7459;53.590;10.062;2022-08-25T05:06:12;7.38;;;3.28;;
14736;SDS011;7459;53.590;10.062;2022-08-25T05:08:39;8.95;;;3.17;;
14736;SDS011;7459;53.590;10.062;2022-08-25T05:11:05;10.40;;;3.17;;
14736;SDS011;7459;53.590;10.062;2022-08-25T05:13:37;6.18;;;3.15;;
14736;SDS011;7459;53.590;10.062;2022-08-25T05:16:03;8.37;;;3.17;;
14736;SDS011;7459;53.590;10.062;2022-08-25T05:18:30;8.43;;;3.30;;
14736;SDS011;7459;53.590;10.062;2022-08-25T05:21:04;8.35;;;3.30;;
14736;SDS011;7459;53.590;10.062;2022-08-25T05:23:42;7.97;;;3.72;;
14736;SDS011;7459;53.590;10.062;2022-08-25T05:26:11;11.50;;;3.90;;
14736;SDS011;7459;53.590;10.062;2022-08-25T05:28:43;8.90;;;3.70;;
14736;SDS011;7459;53.590;10.062;2022-08-25T05:31:10;11.32;;;3.60;;
14736;SDS011;7459;53.590;10.062;2022-08-25T05:33:39;9.35;;;4.03;;
14736;SDS011;7459;53.590;10.062;2022-08-25T05:36:06;9.73;;;3.92;;
14736;SDS011;7459;53.590;10.062;2022-08-25T05:38:34;11.18;;;4.72;;
14736;SDS011;7459;53.590;10.062;2022-08-25T05:41:05;9.47;;;4.30;;
14736;SDS011;7459;53.590;10.062;2022-08-25T05:43:40;12.77;;;5.70;;
14736;SDS011;7459;53.590;10.062;2022-08-25T05:46:08;10.50;;;4.68;;
14736;SDS011;7459;53.590;10.062;2022-08-25T05:48:35;9.23;;;5.35;;
14736;SDS011;7459;53.590;10.062;2022-08-25T05:51:02;12.40;;;6.10;;
14736;SDS011;7459;53.590;10.062;2022-08-25T05:53:30;11.40;;;6.30;;
14736;SDS011;7459;53.590;10.062;2022-08-25T05:55:57;11.35;;;5.32;;
14736;SDS011;7459;53.590;10.062;2022-08-25T05:58:24;11.27;;;6.32;;
14736;SDS011;7459;53.590;10.062;2022-08-25T06:00:54;12.70;;;6.70;;
14736;SDS011;7459;53.590;10.062;2022-08-25T06:03:22;13.93;;;7.28;;
14736;SDS011;7459;53.590;10.062;2022-08-25T06:05:47;10.97;;;6.57;;
14736;SDS011;7459;53.590;10.062;2022-08-25T06:08:14;13.95;;;6.97;;
14736;SDS011;7459;53.590;10.062;2022-08-25T06:10:40;14.00;;;7.28;;
14736;SDS011;7459;53.590;10.062;2022-08-25T06:13:06;12.30;;;6.93;;
14736;SDS011;7459;53.590;10.062;2022-08-25T06:15:32;12.15;;;6.78;;
14736;SDS011;7459;53.590;10.062;2022-08-25T06:17:58;13.30;;;7.37;;
14736;SDS011;7459;53.590;10.062;2022-08-25T06:20:26;14.57;;;6.90;;
14736;SDS011;7459;53.590;10.062;2022-08-25T06:22:54;12.88;;;6.50;;
14736;SDS011;7459;53.590;10.062;2022-08-25T06:25:22;12.45;;;6.68;;
14736;SDS011;7459;53.590;10.062;2022-08-25T06:27:49;13.47;;;7.27;;
14736;SDS011;7459;53.590;10.062;2022-08-25T06:30:17;14.20;;;7.22;;
14736;SDS011;7459;53.590;10.062;2022-08-25T06:32:44;16.48;;;7.45;;
14736;SDS011;7459;53.590;10.062;2022-08-25T06:35:15;17.52;;;7.53;;
14736;SDS011;7459;53.590;10.062;2022-08-25T06:37:43;12.80;;;7.60;;
14736;SDS011;7459;53.590;10.062;2022-08-25T06:40:10;14.37;;;7.90;;
14736;SDS011;7459;53.590;10.062;2022-08-25T06:42:37;17.48;;;7.18;;
14736;SDS011;7459;53.590;10.062;2022-08-25T06:45:03;13.90;;;7.72;;
14736;SDS011;7459;53.590;10.062;2022-08-25T06:47:30;13.93;;;7.53;;
14736;SDS011;7459;53.590;10.062;2022-08-25T06:49:56;16.80;;;7.83;;
14736;SDS011;7459;53.590;10.062;2022-08-25T06:52:22;15.07;;;8.00;;
14736;SDS011;7459;53.590;10.062;2022-08-25T06:54:48;16.08;;;8.35;;
14736;SDS011;7459;53.590;10.062;2022-08-25T06:57:14;13.15;;;7.63;;
14736;SDS011;7459;53.590;10.062;2022-08-25T06:59:40;15.00;;;7.77;;
14736;SDS011;7459;53.590;10.062;2022-08-25T07:02:06;12.10;;;7.22;;
14736;SDS011;7459;53.590;10.062;2022-08-25T07:04:33;13.48;;;7.20;;
14736;SDS011;7459;53.590;10.062;2022-08-25T07:06:59;14.37;;;7.07;;
14736;SDS011;7459;53.590;10.062;2022-08-25T07:09:25;13.95;;;7.40;;
14736;SDS011;7459;53.590;10.062;2022-08-25T07:11:51;11.00;;;7.05;;
14736;SDS011;7459;53.590;10.062;2022-08-25T07:14:17;14.63;;;8.55;;
14736;SDS011;7459;53.590;10.062;2022-08-25T07:16:43;15.40;;;7.27;;
14736;SDS011;7459;53.590;10.062;2022-08-25T07:19:10;13.85;;;7.18;;
14736;SDS011;7459;53.590;10.062;2022-08-25T07:21:38;12.68;;;7.55;;
14736;SDS011;7459;53.590;10.062;2022-08-25T07:24:07;13.40;;;7.43;;
14736;SDS011;7459;53.590;10.062;2022-08-25T07:26:36;14.88;;;8.27;;
14736;SDS011;7459;53.590;10.062;2022-08-25T07:29:11;13.03;;;7.80;;
14736;SDS011;7459;53.590;10.062;2022-08-25T07:31:39;14.70;;;7.53;;
14736;SDS011;7459;53.590;10.062;2022-08-25T07:34:05;16.20;;;8.60;;
14736;SDS011;7459;53.590;10.062;2022-08-25T07:36:50;13.32;;;7.75;;
14736;SDS011;7459;53.590;10.062;2022-08-25T07:39:16;14.40;;;7.53;;
14736;SDS011;7459;53.590;10.062;2022-08-25T07:41:42;12.25;;;6.85;;
14736;SDS011;7459;53.590;10.062;2022-08-25T07:44:09;13.18;;;7.20;;
14736;SDS011;7459;53.590;10.062;2022-08-25T07:46:37;12.02;;;7.47;;
14736;SDS011;7459;53.590;10.062;2022-08-25T07:49:03;10.60;;;7.03;;
14736;SDS011;7459;53.590;10.062;2022-08-25T07:51:29;11.20;;;6.72;;
14736;SDS011;7459;53.590;10.062;2022-08-25T07:53:55;11.38;;;6.60;;
14736;SDS011;7459;53.590;10.062;2022-08-25T07:56:21;10.35;;;6.40;;
14736;SDS011;7459;53.590;10.062;2022-08-25T07:58:47;13.87;;;6.73;;
14736;SDS011;7459;53.590;10.062;2022-08-25T08:01:13;12.98;;;7.25;;
14736;SDS011;7459;53.590;10.062;2022-08-25T08:03:41;12.73;;;6.55;;
14736;SDS011;7459;53.590;10.062;2022-08-25T08:06:08;10.63;;;6.78;;
14736;SDS011;7459;53.590;10.062;2022-08-25T08:08:36;14.07;;;7.30;;
14736;SDS011;7459;53.590;10.062;2022-08-25T08:11:04;11.63;;;6.60;;
14736;SDS011;7459;53.590;10.062;2022-08-25T08:13:31;11.65;;;6.20;;
14736;SDS011;7459;53.590;10.062;2022-08-25T08:15:57;11.45;;;6.28;;
14736;SDS011;7459;53.590;10.062;2022-08-25T08:18:23;11.90;;;6.40;;
14736;SDS011;7459;53.590;10.062;2022-08-25T08:20:49;11.68;;;7.15;;
14736;SDS011;7459;53.590;10.062;2022-08-25T08:23:15;12.87;;;6.47;;
14736;SDS011;7459;53.590;10.062;2022-08-25T08:25:41;13.25;;;7.13;;
14736;SDS011;7459;53.590;10.062;2022-08-25T08:28:07;13.23;;;6.13;;
14736;SDS011;7459;53.590;10.062;2022-08-25T08:30:33;10.30;;;6.67;;
14736;SDS011;7459;53.590;10.062;2022-08-25T08:33:00;11.82;;;6.78;;
14736;SDS011;7459;53.590;10.062;2022-08-25T08:35:26;11.20;;;6.93;;
14736;SDS011;7459;53.590;10.062;2022-08-25T08:37:51;11.87;;;6.83;;
14736;SDS011;7459;53.590;10.062;2022-08-25T08:40:17;11.70;;;6.60;;
14736;SDS011;7459;53.590;10.062;2022-08-25T08:43:00;12.03;;;6.83;;
14736;SDS011;7459;53.590;10.062;2022-08-25T08:45:32;14.05;;;7.65;;
14736;SDS011;7459;53.590;10.062;2022-08-25T08:48:13;11.13;;;6.25;;
14736;SDS011;7459;53.590;10.062;2022-08-25T08:51:34;16.65;;;7.35;;
14736;SDS011;7459;53.590;10.062;2022-08-25T08:54:16;11.95;;;7.55;;
14736;SDS011;7459;53.590;10.062;2022-08-25T08:56:48;12.30;;;7.40;;
14736;SDS011;7459;53.590;10.062;2022-08-25T08:59:30;12.68;;;8.15;;
14736;SDS011;7459;53.590;10.062;2022-08-25T09:02:11;11.95;;;7.30;;
14736;SDS011;7459;53.590;10.062;2022-08-25T09:05:01;13.10;;;7.30;;
14736;SDS011;7459;53.590;10.062;2022-08-25T09:07:34;12.90;;;7.70;;
14736;SDS011;7459;53.590;10.062;2022-08-25T09:10:08;13.80;;;7.00;;
14736;SDS011;7459;53.590;10.062;2022-08-25T09:12:57;13.90;;;8.00;;
14736;SDS011;7459;53.590;10.062;2022-08-25T09:15:49;13.10;;;7.22;;
14736;SDS011;7459;53.590;10.062;2022-08-25T09:24:16;11.13;;;7.13;;
14736;SDS011;7459;53.590;10.062;2022-08-25T09:26:58;10.75;;;6.68;;
14736;SDS011;7459;53.590;10.062;2022-08-25T09:29:45;11.70;;;7.00;;
14736;SDS011;7459;53.590;10.062;2022-08-25T09:32:47;11.50;;;7.20;;
14736;SDS011;7459;53.590;10.062;2022-08-25T09:35:26;11.05;;;7.13;;
14736;SDS011;7459;53.590;10.062;2022-08-25T09:40:22;16.20;;;9.07;;
14736;SDS011;7459;53.590;10.062;2022-08-25T09:42:50;15.38;;;7.68;;
14736;SDS011;7459;53.590;10.062;2022-08-25T09:45:40;16.23;;;8.32;;
14736;SDS011;7459;53.590;10.062;2022-08-25T09:51:22;13.53;;;8.87;;
14736;SDS011;7459;53.590;10.062;2022-08-25T09:56:52;14.35;;;9.25;;
14736;SDS011;7459;53.590;10.062;2022-08-25T10:04:49;15.97;;;8.33;;
14736;SDS011;7459;53.590;10.062;2022-08-25T10:07:27;13.85;;;8.25;;
14736;SDS011;7459;53.590;10.062;2022-08-25T10:10:03;12.70;;;7.90;;
14736;SDS011;7459;53.590;10.062;2022-08-25T10:12:42;12.75;;;7.35;;
14736;SDS011;7459;53.590;10.062;2022-08-25T10:15:18;12.82;;;7.13;;
14736;SDS011;7459;53.590;10.062;2022-08-25T10:17:47;14.73;;;7.30;;
14736;SDS011;7459;53.590;10.062;2022-08-25T10:20:16;9.93;;;6.43;;
14736;SDS011;7459;53.590;10.062;2022-08-25T10:22:46;10.70;;;6.25;;
14736;SDS011;7459;53.590;10.062;2022-08-25T10:25:14;10.27;;;6.47;;
14736;SDS011;7459;53.590;10.062;2022-08-25T10:33:20;10.27;;;4.68;;
14736;SDS011;7459;53.590;10.062;2022-08-25T10:36:04;7.75;;;3.95;;
14736;SDS011;7459;53.590;10.062;2022-08-25T10:41:20;8.57;;;3.28;;
14736;SDS011;7459;53.590;10.062;2022-08-25T10:48:00;6.63;;;3.40;;
14736;SDS011;7459;53.590;10.062;2022-08-25T10:50:40;5.68;;;3.03;;
14736;SDS011;7459;53.590;10.062;2022-08-25T10:53:14;8.13;;;3.72;;
14736;SDS011;7459;53.590;10.062;2022-08-25T10:56:19;9.18;;;3.88;;
14736;SDS011;7459;53.590;10.062;2022-08-25T11:05:19;7.13;;;3.22;;
14736;SDS011;7459;53.590;10.062;2022-08-25T11:07:49;10.00;;;3.35;;
14736;SDS011;7459;53.590;10.062;2022-08-25T11:10:24;7.43;;;3.28;;
14736;SDS011;7459;53.590;10.062;2022-08-25T11:13:03;7.63;;;3.00;;
14736;SDS011;7459;53.590;10.062;2022-08-25T11:15:41;6.70;;;3.63;;
14736;SDS011;7459;53.590;10.062;2022-08-25T11:18:15;9.98;;;3.72;;
14736;SDS011;7459;53.590;10.062;2022-08-25T11:20:45;7.50;;;3.60;;
14736;SDS011;7459;53.590;10.062;2022-08-25T11:23:39;8.02;;;3.33;;
14736;SDS011;7459;53.590;10.062;2022-08-25T11:26:13;11.25;;;3.33;;
14736;SDS011;7459;53.590;10.062;2022-08-25T11:28:50;8.63;;;2.97;;
14736;SDS011;7459;53.590;10.062;2022-08-25T11:31:26;6.43;;;3.47;;
14736;SDS011;7459;53.590;10.062;2022-08-25T11:33:52;6.30;;;3.27;;
14736;SDS011;7459;53.590;10.062;2022-08-25T11:36:23;8.57;;;3.20;;
14736;SDS011;7459;53.590;10.062;2022-08-25T11:39:07;9.65;;;3.25;;
14736;SDS011;7459;53.590;10.062;2022-08-25T11:44:34;7.80;;;3.03;;
14736;SDS011;7459;53.590;10.062;2022-08-25T11:52:45;5.38;;;2.80;;
14736;SDS011;7459;53.590;10.062;2022-08-25T11:55:19;6.15;;;2.78;;
14736;SDS011;7459;53.590;10.062;2022-08-25T11:58:12;9.63;;;3.13;;
14736;SDS011;7459;53.590;10.062;2022-08-25T12:00:56;9.07;;;2.83;;
14736;SDS011;7459;53.590;10.062;2022-08-25T12:29:52;6.95;;;3.17;;
14736;SDS011;7459;53.590;10.062;2022-08-25T12:32:43;8.98;;;2.67;;
14736;SDS011;7459;53.590;10.062;2022-08-25T12:35:30;5.95;;;2.45;;
14736;SDS011;7459;53.590;10.062;2022-08-25T12:38:16;7.53;;;2.88;;
14736;SDS011;7459;53.590;10.062;2022-08-25T12:40:53;5.60;;;2.90;;
14736;SDS011;7459;53.590;10.062;2022-08-25T12:43:31;5.93;;;2.97;;
14736;SDS011;7459;53.590;10.062;2022-08-25T12:49:10;6.40;;;2.28;;
14736;SDS011;7459;53.590;10.062;2022-08-25T13:00:13;7.65;;;2.80;;
14736;SDS011;7459;53.590;10.062;2022-08-25T13:08:35;7.37;;;3.23;;
14736;SDS011;7459;53.590;10.062;2022-08-25T13:11:22;9.68;;;3.00;;
14736;SDS011;7459;53.590;10.062;2022-08-25T13:14:05;7.00;;;2.58;;
14736;SDS011;7459;53.590;10.062;2022-08-25T13:16:50;7.47;;;2.47;;
14736;SDS011;7459;53.590;10.062;2022-08-25T13:19:21;8.45;;;2.60;;
14736;SDS011;7459;53.590;10.062;2022-08-25T13:21:49;7.13;;;2.60;;
14736;SDS011;7459;53.590;10.062;2022-08-25T13:24:28;9.27;;;2.58;;
14736;SDS011;7459;53.590;10.062;2022-08-25T13:26:58;7.75;;;3.00;;
14736;SDS011;7459;53.590;10.062;2022-08-25T13:29:30;5.38;;;2.45;;
14736;SDS011;7459;53.590;10.062;2022-08-25T13:32:00;8.00;;;2.53;;
14736;SDS011;7459;53.590;10.062;2022-08-25T13:34:30;7.37;;;2.50;;
14736;SDS011;7459;53.590;10.062;2022-08-25T13:37:09;6.60;;;2.83;;
14736;SDS011;7459;53.590;10.062;2022-08-25T13:40:06;7.70;;;2.75;;
14736;SDS011;7459;53.590;10.062;2022-08-25T13:42:49;7.85;;;2.28;;
14736;SDS011;7459;53.590;10.062;2022-08-25T13:45:18;5.68;;;2.92;;
14736;SDS011;7459;53.590;10.062;2022-08-25T13:47:48;8.87;;;2.67;;
14736;SDS011;7459;53.590;10.062;2022-08-25T13:52:59;7.88;;;3.28;;
14736;SDS011;7459;53.590;10.062;2022-08-25T13:55:34;7.70;;;2.60;;
14736;SDS011;7459;53.590;10.062;2022-08-25T13:58:23;6.22;;;2.50;;
14736;SDS011;7459;53.590;10.062;2022-08-25T14:03:46;5.43;;;2.90;;
14736;SDS011;7459;53.590;10.062;2022-08-25T14:08:40;9.70;;;3.37;;
14736;SDS011;7459;53.590;10.062;2022-08-25T14:14:49;5.95;;;2.70;;
14736;SDS011;7459;53.590;10.062;2022-08-25T14:17:00;7.13;;;2.85;;
14736;SDS011;7459;53.590;10.062;2022-08-25T14:19:33;7.32;;;2.70;;
14736;SDS011;7459;53.590;10.062;2022-08-25T14:22:00;8.27;;;3.10;;
14736;SDS011;7459;53.590;10.062;2022-08-25T14:24:27;6.93;;;2.88;;
14736;SDS011;7459;53.590;10.062;2022-08-25T14:26:58;6.25;;;2.70;;
14736;SDS011;7459;53.590;10.062;2022-08-25T14:29:26;7.13;;;3.20;;
14736;SDS011;7459;53.590;10.062;2022-08-25T14:31:53;9.23;;;2.95;;
14736;SDS011;7459;53.590;10.062;2022-08-25T14:34:21;7.90;;;3.00;;
14736;SDS011;7459;53.590;10.062;2022-08-25T14:36:51;7.18;;;3.65;;
14736;SDS011;7459;53.590;10.062;2022-08-25T14:39:18;6.70;;;2.50;;
14736;SDS011;7459;53.590;10.062;2022-08-25T14:41:44;7.40;;;2.70;;
14736;SDS011;7459;53.590;10.062;2022-08-25T14:44:10;6.85;;;3.15;;
14736;SDS011;7459;53.590;10.062;2022-08-25T14:46:37;6.97;;;3.00;;
14736;SDS011;7459;53.590;10.062;2022-08-25T14:49:10;7.60;;;2.85;;
14736;SDS011;7459;53.590;10.062;2022-08-25T14:51:42;7.20;;;3.78;;
14736;SDS011;7459;53.590;10.062;2022-08-25T14:54:10;6.13;;;3.33;;
14736;SDS011;7459;53.590;10.062;2022-08-25T14:56:38;6.10;;;2.87;;
14736;SDS011;7459;53.590;10.062;2022-08-25T14:59:05;8.18;;;3.00;;
14736;SDS011;7459;53.590;10.062;2022-08-25T15:01:31;9.70;;;3.05;;
14736;SDS011;7459;53.590;10.062;2022-08-25T15:04:00;12.13;;;3.10;;
14736;SDS011;7459;53.590;10.062;2022-08-25T15:06:30;12.75;;;3.33;;
14736;SDS011;7459;53.590;10.062;2022-08-25T15:08:56;13.07;;;3.13;;
14736;SDS011;7459;53.590;10.062;2022-08-25T15:11:37;5.97;;;3.00;;
14736;SDS011;7459;53.590;10.062;2022-08-25T15:14:10;8.23;;;3.63;;
14736;SDS011;7459;53.590;10.062;2022-08-25T15:16:43;7.18;;;3.33;;
14736;SDS011;7459;53.590;10.062;2022-08-25T15:19:14;8.35;;;3.10;;
14736;SDS011;7459;53.590;10.062;2022-08-25T15:21:43;8.33;;;3.20;;
14736;SDS011;7459;53.590;10.062;2022-08-25T15:24:11;10.13;;;3.85;;
14736;SDS011;7459;53.590;10.062;2022-08-25T15:26:39;7.78;;;2.80;;
14736;SDS011;7459;53.590;10.062;2022-08-25T15:29:08;6.18;;;3.38;;
14736;SDS011;7459;53.590;10.062;2022-08-25T15:31:34;7.05;;;2.83;;
14736;SDS011;7459;53.590;10.062;2022-08-25T15:34:00;5.30;;;2.90;;
14736;SDS011;7459;53.590;10.062;2022-08-25T15:36:26;8.45;;;3.13;;
14736;SDS011;7459;53.590;10.062;2022-08-25T15:38:52;8.00;;;3.30;;
14736;SDS011;7459;53.590;10.062;2022-08-25T15:41:18;7.63;;;3.05;;
14736;SDS011;7459;53.590;10.062;2022-08-25T15:43:46;6.15;;;3.20;;
14736;SDS011;7459;53.590;10.062;2022-08-25T15:46:14;6.20;;;3.00;;
14736;SDS011;7459;53.590;10.062;2022-08-25T15:48:44;7.10;;;3.40;;
14736;SDS011;7459;53.590;10.062;2022-08-25T15:51:10;7.10;;;3.17;;
14736;SDS011;7459;53.590;10.062;2022-08-25T15:53:36;8.38;;;3.00;;
14736;SDS011;7459;53.590;10.062;2022-08-25T15:56:03;8.43;;;4.10;;
14736;SDS011;7459;53.590;10.062;2022-08-25T15:58:30;9.82;;;3.80;;
14736;SDS011;7459;53.590;10.062;2022-08-25T16:00:56;7.47;;;3.40;;
14736;SDS011;7459;53.590;10.062;2022-08-25T16:03:22;10.05;;;3.50;;
14736;SDS011;7459;53.590;10.062;2022-08-25T16:05:49;6.15;;;3.10;;
14736;SDS011;7459;53.590;10.062;2022-08-25T16:08:14;7.47;;;3.30;;
14736;SDS011;7459;53.590;10.062;2022-08-25T16:10:40;5.57;;;3.00;;
14736;SDS011;7459;53.590;10.062;2022-08-25T16:13:08;6.25;;;3.28;;
14736;SDS011;7459;53.590;10.062;2022-08-25T16:15:35;8.47;;;3.30;;
14736;SDS011;7459;53.590;10.062;2022-08-25T16:18:02;7.15;;;3.20;;
14736;SDS011;7459;53.590;10.062;2022-08-25T16:20:30;7.88;;;3.05;;
14736;SDS011;7459;53.590;10.062;2022-08-25T16:22:58;6.78;;;3.17;;
14736;SDS011;7459;53.590;10.062;2022-08-25T16:25:26;7.88;;;3.28;;
14736;SDS011;7459;53.590;10.062;2022-08-25T16:27:52;9.43;;;3.33;;
14736;SDS011;7459;53.590;10.062;2022-08-25T16:30:18;10.85;;;3.17;;
14736;SDS011;7459;53.590;10.062;2022-08-25T16:32:45;6.47;;;3.50;;
14736;SDS011;7459;53.590;10.062;2022-08-25T16:35:11;25.57;;;4.07;;
14736;SDS011;7459;53.590;10.062;2022-08-25T16:37:37;11.87;;;4.47;;
14736;SDS011;7459;53.590;10.062;2022-08-25T16:40:04;8.00;;;4.00;;
14736;SDS011;7459;53.590;10.062;2022-08-25T16:42:30;12.55;;;5.47;;
14736;SDS011;7459;53.590;10.062;2022-08-25T16:44:56;13.27;;;5.27;;
14736;SDS011;7459;53.590;10.062;2022-08-25T16:47:22;11.23;;;3.38;;